sensor_id;sensor_type;location;lat;lon;timestamp;temperature;humidity
8595;DHT22;4335;48.860;9.198;2023-08-30T00:00:22;14.20;99.90
8595;DHT22;4335;48.860;9.198;2023-08-30T00:02:58;14.20;99.90
8595;DHT22;4335;48.860;9.198;2023-08-30T00:05:27;14.20;99.90
8595;DHT22;4335;48.860;9.198;2023-08-30T00:08:06;14.20;99.90
8595;DHT22;4335;48.860;9.198;2023-08-30T00:10:34;14.20;99.90
8595;DHT22;4335;48.860;9.198;2023-08-30T00:13:05;14.20;99.90
8595;DHT22;4335;48.860;9.198;2023-08-30T00:15:33;14.20;99.90
8595;DHT22;4335;48.860;9.198;2023-08-30T00:18:00;14.20;99.90
8595;DHT22;4335;48.860;9.198;2023-08-30T00:20:28;14.20;99.90
8595;DHT22;4335;48.860;9.198;2023-08-30T00:22:55;14.20;99.90
8595;DHT22;4335;48.860;9.198;2023-08-30T00:25:27;14.20;99.90
8595;DHT22;4335;48.860;9.198;2023-08-30T00:27:55;14.20;99.90
8595;DHT22;4335;48.860;9.198;2023-08-30T00:30:24;14.20;99.90
8595;DHT22;4335;48.860;9.198;2023-08-30T00:32:51;14.10;99.90
8595;DHT22;4335;48.860;9.198;2023-08-30T00:35:18;14.20;99.90
8595;DHT22;4335;48.860;9.198;2023-08-30T00:37:46;14.20;99.90
8595;DHT22;4335;48.860;9.198;2023-08-30T00:40:13;14.20;99.90
8595;DHT22;4335;48.860;9.198;2023-08-30T00:42:56;14.10;99.90
8595;DHT22;4335;48.860;9.198;2023-08-30T00:45:31;14.10;99.90
8595;DHT22;4335;48.860;9.198;2023-08-30T00:47:59;14.10;99.90
8595;DHT22;4335;48.860;9.198;2023-08-30T00:50:26;14.10;99.90
8595;DHT22;4335;48.860;9.198;2023-08-30T00:52:54;14.10;99.90
8595;DHT22;4335;48.860;9.198;2023-08-30T00:55:21;14.00;99.90
8595;DHT22;4335;48.860;9.198;2023-08-30T00:57:51;14.00;99.90
8595;DHT22;4335;48.860;9.198;2023-08-30T01:00:19;14.00;99.90
8595;DHT22;4335;48.860;9.198;2023-08-30T01:02:48;14.00;99.90
8595;DHT22;4335;48.860;9.198;2023-08-30T01:05:16;14.00;99.90
8595;DHT22;4335;48.860;9.198;2023-08-30T01:07:43;14.00;99.90
8595;DHT22;4335;48.860;9.198;2023-08-30T01:10:11;14.00;99.90
8595;DHT22;4335;48.860;9.198;2023-08-30T01:12:48;14.00;99.90
8595;DHT22;4335;48.860;9.198;2023-08-30T01:15:19;14.00;99.90
8595;DHT22;4335;48.860;9.198;2023-08-30T01:17:52;14.00;99.90
8595;DHT22;4335;48.860;9.198;2023-08-30T01:20:23;14.00;99.90
8595;DHT22;4335;48.860;9.198;2023-08-30T01:22:59;14.00;99.90
8595;DHT22;4335;48.860;9.198;2023-08-30T01:25:43;14.00;99.90
8595;DHT22;4335;48.860;9.198;2023-08-30T01:28:20;14.00;99.90
8595;DHT22;4335;48.860;9.198;2023-08-30T01:30:54;13.90;99.90
8595;DHT22;4335;48.860;9.198;2023-08-30T01:33:23;13.90;99.90
8595;DHT22;4335;48.860;9.198;2023-08-30T01:35:54;13.90;99.90
8595;DHT22;4335;48.860;9.198;2023-08-30T01:38:23;13.90;99.90
8595;DHT22;4335;48.860;9.198;2023-08-30T01:40:52;13.80;99.90
8595;DHT22;4335;48.860;9.198;2023-08-30T01:43:25;13.80;99.90
8595;DHT22;4335;48.860;9.198;2023-08-30T01:45:55;13.80;99.90
8595;DHT22;4335;48.860;9.198;2023-08-30T01:48:27;13.70;99.90
8595;DHT22;4335;48.860;9.198;2023-08-30T01:50:58;13.70;99.90
8595;DHT22;4335;48.860;9.198;2023-08-30T01:53:26;13.70;99.90
8595;DHT22;4335;48.860;9.198;2023-08-30T01:55:54;13.60;99.90
8595;DHT22;4335;48.860;9.198;2023-08-30T01:58:21;13.60;99.90
8595;DHT22;4335;48.860;9.198;2023-08-30T02:00:50;13.60;99.90
8595;DHT22;4335;48.860;9.198;2023-08-30T02:03:24;13.60;99.90
8595;DHT22;4335;48.860;9.198;2023-08-30T02:06:00;13.60;99.90
8595;DHT22;4335;48.860;9.198;2023-08-30T02:08:37;13.60;99.90
8595;DHT22;4335;48.860;9.198;2023-08-30T02:11:13;13.50;99.90
8595;DHT22;4335;48.860;9.198;2023-08-30T02:13:45;13.50;99.90
8595;DHT22;4335;48.860;9.198;2023-08-30T02:16:17;13.50;99.90
8595;DHT22;4335;48.860;9.198;2023-08-30T02:18:46;13.50;99.90
8595;DHT22;4335;48.860;9.198;2023-08-30T02:21:14;13.50;99.90
8595;DHT22;4335;48.860;9.198;2023-08-30T02:23:41;13.50;99.90
8595;DHT22;4335;48.860;9.198;2023-08-30T02:26:12;13.50;99.90
8595;DHT22;4335;48.860;9.198;2023-08-30T02:28:39;13.50;99.90
8595;DHT22;4335;48.860;9.198;2023-08-30T02:31:09;13.50;99.90
8595;DHT22;4335;48.860;9.198;2023-08-30T02:33:44;13.50;99.90
8595;DHT22;4335;48.860;9.198;2023-08-30T02:36:14;13.50;99.90
8595;DHT22;4335;48.860;9.198;2023-08-30T02:38:42;13.50;99.90
8595;DHT22;4335;48.860;9.198;2023-08-30T02:41:09;13.50;99.90
8595;DHT22;4335;48.860;9.198;2023-08-30T02:43:44;13.40;99.90
8595;DHT22;4335;48.860;9.198;2023-08-30T02:46:11;13.40;99.90
8595;DHT22;4335;48.860;9.198;2023-08-30T02:48:46;13.40;99.90
8595;DHT22;4335;48.860;9.198;2023-08-30T02:51:22;13.40;99.90
8595;DHT22;4335;48.860;9.198;2023-08-30T02:53:59;13.40;99.90
8595;DHT22;4335;48.860;9.198;2023-08-30T02:56:26;13.30;99.90
8595;DHT22;4335;48.860;9.198;2023-08-30T02:58:54;13.30;99.90
8595;DHT22;4335;48.860;9.198;2023-08-30T03:01:21;13.30;99.90
8595;DHT22;4335;48.860;9.198;2023-08-30T03:03:50;13.30;99.90
8595;DHT22;4335;48.860;9.198;2023-08-30T03:06:20;13.30;99.90
8595;DHT22;4335;48.860;9.198;2023-08-30T03:08:47;13.30;99.90
8595;DHT22;4335;48.860;9.198;2023-08-30T03:11:18;13.30;99.90
8595;DHT22;4335;48.860;9.198;2023-08-30T03:13:45;13.30;99.90
8595;DHT22;4335;48.860;9.198;2023-08-30T03:16:13;13.30;99.90
8595;DHT22;4335;48.860;9.198;2023-08-30T03:18:43;13.40;99.90
8595;DHT22;4335;48.860;9.198;2023-08-30T03:21:15;13.40;99.90
8595;DHT22;4335;48.860;9.198;2023-08-30T03:23:43;13.40;99.90
8595;DHT22;4335;48.860;9.198;2023-08-30T03:26:14;13.40;99.90
8595;DHT22;4335;48.860;9.198;2023-08-30T03:28:43;13.50;99.90
8595;DHT22;4335;48.860;9.198;2023-08-30T03:31:12;13.50;99.90
8595;DHT22;4335;48.860;9.198;2023-08-30T03:33:43;13.50;99.90
8595;DHT22;4335;48.860;9.198;2023-08-30T03:36:12;13.50;99.90
8595;DHT22;4335;48.860;9.198;2023-08-30T03:38:42;13.50;99.90
8595;DHT22;4335;48.860;9.198;2023-08-30T03:41:10;13.60;99.90
8595;DHT22;4335;48.860;9.198;2023-08-30T03:43:38;13.60;99.90
8595;DHT22;4335;48.860;9.198;2023-08-30T03:46:11;13.60;99.90
8595;DHT22;4335;48.860;9.198;2023-08-30T03:48:45;13.60;99.90
8595;DHT22;4335;48.860;9.198;2023-08-30T03:51:15;13.70;99.90
8595;DHT22;4335;48.860;9.198;2023-08-30T03:53:44;13.70;99.90
8595;DHT22;4335;48.860;9.198;2023-08-30T03:56:11;13.70;99.90
8595;DHT22;4335;48.860;9.198;2023-08-30T03:58:38;13.70;99.90
8595;DHT22;4335;48.860;9.198;2023-08-30T04:01:06;13.70;99.90
8595;DHT22;4335;48.860;9.198;2023-08-30T04:03:33;13.70;99.90
8595;DHT22;4335;48.860;9.198;2023-08-30T04:06:01;13.70;99.90
8595;DHT22;4335;48.860;9.198;2023-08-30T04:08:34;13.70;99.90
8595;DHT22;4335;48.860;9.198;2023-08-30T04:11:06;13.70;99.90
8595;DHT22;4335;48.860;9.198;2023-08-30T04:13:36;13.70;99.90
8595;DHT22;4335;48.860;9.198;2023-08-30T04:16:07;13.70;99.90
8595;DHT22;4335;48.860;9.198;2023-08-30T04:18:34;13.70;99.90
8595;DHT22;4335;48.860;9.198;2023-08-30T04:21:08;13.70;99.90
8595;DHT22;4335;48.860;9.198;2023-08-30T04:23:35;13.80;99.90
8595;DHT22;4335;48.860;9.198;2023-08-30T04:26:10;13.80;99.90
8595;DHT22;4335;48.860;9.198;2023-08-30T04:28:37;13.80;99.90
8595;DHT22;4335;48.860;9.198;2023-08-30T04:31:07;13.90;99.90
8595;DHT22;4335;48.860;9.198;2023-08-30T04:33:35;13.90;99.90
8595;DHT22;4335;48.860;9.198;2023-08-30T04:36:02;14.00;99.90
8595;DHT22;4335;48.860;9.198;2023-08-30T04:38:32;14.00;99.90
8595;DHT22;4335;48.860;9.198;2023-08-30T04:41:00;14.10;99.90
8595;DHT22;4335;48.860;9.198;2023-08-30T04:43:35;14.10;99.90
8595;DHT22;4335;48.860;9.198;2023-08-30T04:46:03;14.10;99.90
8595;DHT22;4335;48.860;9.198;2023-08-30T04:48:36;14.20;99.90
8595;DHT22;4335;48.860;9.198;2023-08-30T04:51:04;14.20;99.90
8595;DHT22;4335;48.860;9.198;2023-08-30T04:53:32;14.20;99.90
8595;DHT22;4335;48.860;9.198;2023-08-30T04:55:59;14.20;99.90
8595;DHT22;4335;48.860;9.198;2023-08-30T04:58:34;14.20;99.90
8595;DHT22;4335;48.860;9.198;2023-08-30T05:01:04;14.20;99.90
8595;DHT22;4335;48.860;9.198;2023-08-30T05:03:32;14.20;99.90
8595;DHT22;4335;48.860;9.198;2023-08-30T05:06:09;14.20;99.90
8595;DHT22;4335;48.860;9.198;2023-08-30T05:08:40;14.20;99.90
8595;DHT22;4335;48.860;9.198;2023-08-30T05:11:08;14.20;99.90
8595;DHT22;4335;48.860;9.198;2023-08-30T05:13:37;14.30;99.90
8595;DHT22;4335;48.860;9.198;2023-08-30T05:16:07;14.30;99.90
8595;DHT22;4335;48.860;9.198;2023-08-30T05:18:38;14.30;99.90
8595;DHT22;4335;48.860;9.198;2023-08-30T05:21:15;14.30;99.90
8595;DHT22;4335;48.860;9.198;2023-08-30T05:23:42;14.40;99.90
8595;DHT22;4335;48.860;9.198;2023-08-30T05:26:10;14.40;99.90
8595;DHT22;4335;48.860;9.198;2023-08-30T05:28:43;14.40;99.90
8595;DHT22;4335;48.860;9.198;2023-08-30T05:31:11;14.50;99.90
8595;DHT22;4335;48.860;9.198;2023-08-30T05:33:41;14.50;99.90
8595;DHT22;4335;48.860;9.198;2023-08-30T05:36:21;14.60;99.90
8595;DHT22;4335;48.860;9.198;2023-08-30T05:38:54;14.60;99.90
8595;DHT22;4335;48.860;9.198;2023-08-30T05:41:22;14.60;99.90
8595;DHT22;4335;48.860;9.198;2023-08-30T05:43:53;14.60;99.90
8595;DHT22;4335;48.860;9.198;2023-08-30T05:46:21;14.60;99.90
8595;DHT22;4335;48.860;9.198;2023-08-30T05:48:49;14.60;99.90
8595;DHT22;4335;48.860;9.198;2023-08-30T05:51:19;14.60;99.90
8595;DHT22;4335;48.860;9.198;2023-08-30T05:53:50;14.60;99.90
8595;DHT22;4335;48.860;9.198;2023-08-30T05:56:17;14.60;99.90
8595;DHT22;4335;48.860;9.198;2023-08-30T05:58:44;14.60;99.90
8595;DHT22;4335;48.860;9.198;2023-08-30T06:01:18;14.70;99.90
8595;DHT22;4335;48.860;9.198;2023-08-30T06:03:46;14.70;99.90
8595;DHT22;4335;48.860;9.198;2023-08-30T06:06:13;14.70;99.90
8595;DHT22;4335;48.860;9.198;2023-08-30T06:08:46;14.70;99.90
8595;DHT22;4335;48.860;9.198;2023-08-30T06:11:14;14.80;99.90
8595;DHT22;4335;48.860;9.198;2023-08-30T06:13:42;14.80;99.90
8595;DHT22;4335;48.860;9.198;2023-08-30T06:16:09;14.90;99.90
8595;DHT22;4335;48.860;9.198;2023-08-30T06:18:38;14.90;99.90
8595;DHT22;4335;48.860;9.198;2023-08-30T06:21:08;14.90;99.90
8595;DHT22;4335;48.860;9.198;2023-08-30T06:23:39;15.00;99.90
8595;DHT22;4335;48.860;9.198;2023-08-30T06:26:09;15.00;99.90
8595;DHT22;4335;48.860;9.198;2023-08-30T06:28:37;15.00;99.90
8595;DHT22;4335;48.860;9.198;2023-08-30T06:31:09;15.10;99.90
8595;DHT22;4335;48.860;9.198;2023-08-30T06:33:41;15.10;99.90
8595;DHT22;4335;48.860;9.198;2023-08-30T06:36:09;15.10;99.90
8595;DHT22;4335;48.860;9.198;2023-08-30T06:38:40;15.20;99.90
8595;DHT22;4335;48.860;9.198;2023-08-30T06:41:10;15.30;99.90
8595;DHT22;4335;48.860;9.198;2023-08-30T06:43:41;15.30;99.90
8595;DHT22;4335;48.860;9.198;2023-08-30T06:46:08;15.30;99.90
8595;DHT22;4335;48.860;9.198;2023-08-30T06:48:36;15.40;99.90
8595;DHT22;4335;48.860;9.198;2023-08-30T06:51:10;15.50;99.90
8595;DHT22;4335;48.860;9.198;2023-08-30T06:53:40;15.60;99.90
8595;DHT22;4335;48.860;9.198;2023-08-30T06:56:07;15.70;99.90
8595;DHT22;4335;48.860;9.198;2023-08-30T06:58:34;15.80;99.90
8595;DHT22;4335;48.860;9.198;2023-08-30T07:01:02;15.80;99.90
8595;DHT22;4335;48.860;9.198;2023-08-30T07:03:30;15.90;99.90
8595;DHT22;4335;48.860;9.198;2023-08-30T07:05:57;15.90;99.90
8595;DHT22;4335;48.860;9.198;2023-08-30T07:08:31;16.00;99.90
8595;DHT22;4335;48.860;9.198;2023-08-30T07:10:59;16.00;99.90
8595;DHT22;4335;48.860;9.198;2023-08-30T07:13:32;16.10;99.90
8595;DHT22;4335;48.860;9.198;2023-08-30T07:16:00;16.20;99.90
8595;DHT22;4335;48.860;9.198;2023-08-30T07:18:30;16.20;99.90
8595;DHT22;4335;48.860;9.198;2023-08-30T07:20:57;16.20;99.90
8595;DHT22;4335;48.860;9.198;2023-08-30T07:23:29;16.30;99.90
8595;DHT22;4335;48.860;9.198;2023-08-30T07:25:56;16.30;99.90
8595;DHT22;4335;48.860;9.198;2023-08-30T07:28:24;16.30;99.90
8595;DHT22;4335;48.860;9.198;2023-08-30T07:30:51;16.30;99.90
8595;DHT22;4335;48.860;9.198;2023-08-30T07:33:21;16.40;99.90
8595;DHT22;4335;48.860;9.198;2023-08-30T07:35:49;16.40;99.90
8595;DHT22;4335;48.860;9.198;2023-08-30T07:38:16;16.40;99.90
8595;DHT22;4335;48.860;9.198;2023-08-30T07:40:45;16.40;99.90
8595;DHT22;4335;48.860;9.198;2023-08-30T07:43:12;16.40;99.90
8595;DHT22;4335;48.860;9.198;2023-08-30T07:45:46;16.50;99.90
8595;DHT22;4335;48.860;9.198;2023-08-30T07:48:14;16.40;99.90
8595;DHT22;4335;48.860;9.198;2023-08-30T07:50:44;16.50;99.90
8595;DHT22;4335;48.860;9.198;2023-08-30T07:53:12;16.50;99.90
8595;DHT22;4335;48.860;9.198;2023-08-30T07:55:39;16.50;99.90
8595;DHT22;4335;48.860;9.198;2023-08-30T07:58:08;16.50;99.90
8595;DHT22;4335;48.860;9.198;2023-08-30T08:00:36;16.60;99.90
8595;DHT22;4335;48.860;9.198;2023-08-30T08:03:07;16.60;99.90
8595;DHT22;4335;48.860;9.198;2023-08-30T08:05:36;16.70;99.90
8595;DHT22;4335;48.860;9.198;2023-08-30T08:08:04;16.70;99.90
8595;DHT22;4335;48.860;9.198;2023-08-30T08:10:34;16.80;99.90
8595;DHT22;4335;48.860;9.198;2023-08-30T08:13:01;16.80;99.90
8595;DHT22;4335;48.860;9.198;2023-08-30T08:15:31;16.80;99.90
8595;DHT22;4335;48.860;9.198;2023-08-30T08:17:59;17.10;99.90
8595;DHT22;4335;48.860;9.198;2023-08-30T08:20:39;17.20;99.90
8595;DHT22;4335;48.860;9.198;2023-08-30T08:23:09;17.40;99.90
8595;DHT22;4335;48.860;9.198;2023-08-30T08:25:37;17.50;99.90
8595;DHT22;4335;48.860;9.198;2023-08-30T08:28:12;17.70;99.90
8595;DHT22;4335;48.860;9.198;2023-08-30T08:30:46;17.90;99.90
8595;DHT22;4335;48.860;9.198;2023-08-30T08:33:16;18.00;99.90
8595;DHT22;4335;48.860;9.198;2023-08-30T08:35:47;18.30;99.90
8595;DHT22;4335;48.860;9.198;2023-08-30T08:38:15;18.40;99.90
8595;DHT22;4335;48.860;9.198;2023-08-30T08:40:48;18.60;99.90
8595;DHT22;4335;48.860;9.198;2023-08-30T08:43:19;18.70;99.90
8595;DHT22;4335;48.860;9.198;2023-08-30T08:45:49;18.60;99.90
8595;DHT22;4335;48.860;9.198;2023-08-30T08:48:17;18.70;99.90
8595;DHT22;4335;48.860;9.198;2023-08-30T08:50:45;18.80;99.90
8595;DHT22;4335;48.860;9.198;2023-08-30T08:53:15;19.10;99.90
8595;DHT22;4335;48.860;9.198;2023-08-30T08:55:44;19.30;99.90
8595;DHT22;4335;48.860;9.198;2023-08-30T08:58:15;19.40;99.90
8595;DHT22;4335;48.860;9.198;2023-08-30T09:00:46;19.60;99.90
8595;DHT22;4335;48.860;9.198;2023-08-30T09:03:18;19.50;99.90
8595;DHT22;4335;48.860;9.198;2023-08-30T09:05:46;20.00;99.90
8595;DHT22;4335;48.860;9.198;2023-08-30T09:08:15;20.60;99.90
8595;DHT22;4335;48.860;9.198;2023-08-30T09:10:49;21.70;99.90
8595;DHT22;4335;48.860;9.198;2023-08-30T09:13:18;22.90;99.90
8595;DHT22;4335;48.860;9.198;2023-08-30T09:15:46;23.70;99.90
8595;DHT22;4335;48.860;9.198;2023-08-30T09:18:19;24.80;99.90
8595;DHT22;4335;48.860;9.198;2023-08-30T09:20:46;25.70;99.90
8595;DHT22;4335;48.860;9.198;2023-08-30T09:23:17;26.30;99.90
8595;DHT22;4335;48.860;9.198;2023-08-30T09:25:55;26.60;99.90
8595;DHT22;4335;48.860;9.198;2023-08-30T09:28:25;27.20;99.90
8595;DHT22;4335;48.860;9.198;2023-08-30T09:30:53;27.20;99.90
8595;DHT22;4335;48.860;9.198;2023-08-30T09:33:22;27.60;99.90
8595;DHT22;4335;48.860;9.198;2023-08-30T09:36:02;27.80;99.90
8595;DHT22;4335;48.860;9.198;2023-08-30T09:38:37;28.10;99.90
8595;DHT22;4335;48.860;9.198;2023-08-30T09:41:11;28.00;99.90
8595;DHT22;4335;48.860;9.198;2023-08-30T09:43:45;28.00;99.90
8595;DHT22;4335;48.860;9.198;2023-08-30T09:46:13;28.30;99.90
8595;DHT22;4335;48.860;9.198;2023-08-30T09:48:45;28.60;99.90
8595;DHT22;4335;48.860;9.198;2023-08-30T09:51:17;28.60;99.90
8595;DHT22;4335;48.860;9.198;2023-08-30T09:53:49;28.60;99.60
8595;DHT22;4335;48.860;9.198;2023-08-30T09:56:22;28.70;99.40
8595;DHT22;4335;48.860;9.198;2023-08-30T09:58:50;28.90;98.70
8595;DHT22;4335;48.860;9.198;2023-08-30T10:01:18;28.50;98.00
8595;DHT22;4335;48.860;9.198;2023-08-30T10:03:49;28.60;98.30
8595;DHT22;4335;48.860;9.198;2023-08-30T10:06:17;28.80;98.10
8595;DHT22;4335;48.860;9.198;2023-08-30T10:08:51;29.20;98.00
8595;DHT22;4335;48.860;9.198;2023-08-30T10:11:20;29.40;97.00
8595;DHT22;4335;48.860;9.198;2023-08-30T10:13:48;29.40;96.30
8595;DHT22;4335;48.860;9.198;2023-08-30T10:16:24;29.30;95.50
8595;DHT22;4335;48.860;9.198;2023-08-30T10:19:02;29.30;93.80
8595;DHT22;4335;48.860;9.198;2023-08-30T10:21:35;29.00;93.40
8595;DHT22;4335;48.860;9.198;2023-08-30T10:24:08;29.40;93.90
8595;DHT22;4335;48.860;9.198;2023-08-30T10:26:41;29.60;93.10
8595;DHT22;4335;48.860;9.198;2023-08-30T10:29:10;29.50;92.90
8595;DHT22;4335;48.860;9.198;2023-08-30T10:31:38;29.80;91.50
8595;DHT22;4335;48.860;9.198;2023-08-30T10:34:15;29.90;91.90
8595;DHT22;4335;48.860;9.198;2023-08-30T10:36:43;30.20;91.80
8595;DHT22;4335;48.860;9.198;2023-08-30T10:39:12;30.30;91.10
8595;DHT22;4335;48.860;9.198;2023-08-30T10:41:55;30.20;91.40
8595;DHT22;4335;48.860;9.198;2023-08-30T10:44:23;30.00;91.70
8595;DHT22;4335;48.860;9.198;2023-08-30T10:46:53;29.40;92.80
8595;DHT22;4335;48.860;9.198;2023-08-30T10:49:25;29.00;92.50
8595;DHT22;4335;48.860;9.198;2023-08-30T10:51:56;28.50;92.80
8595;DHT22;4335;48.860;9.198;2023-08-30T10:54:36;28.00;92.80
8595;DHT22;4335;48.860;9.198;2023-08-30T10:57:14;27.70;94.10
8595;DHT22;4335;48.860;9.198;2023-08-30T11:02:37;26.80;96.60
8595;DHT22;4335;48.860;9.198;2023-08-30T11:05:08;26.20;97.80
8595;DHT22;4335;48.860;9.198;2023-08-30T11:07:36;25.90;98.30
8595;DHT22;4335;48.860;9.198;2023-08-30T11:10:07;25.40;99.50
8595;DHT22;4335;48.860;9.198;2023-08-30T11:12:35;25.30;99.90
8595;DHT22;4335;48.860;9.198;2023-08-30T11:15:07;24.80;99.70
8595;DHT22;4335;48.860;9.198;2023-08-30T11:17:35;24.40;99.90
8595;DHT22;4335;48.860;9.198;2023-08-30T11:20:10;24.00;99.90
8595;DHT22;4335;48.860;9.198;2023-08-30T11:22:40;23.50;99.90
8595;DHT22;4335;48.860;9.198;2023-08-30T11:25:13;23.10;99.90
8595;DHT22;4335;48.860;9.198;2023-08-30T11:27:41;22.90;99.90
8595;DHT22;4335;48.860;9.198;2023-08-30T11:30:12;22.70;99.90
8595;DHT22;4335;48.860;9.198;2023-08-30T11:32:40;22.50;99.90
8595;DHT22;4335;48.860;9.198;2023-08-30T11:35:16;22.30;99.90
8595;DHT22;4335;48.860;9.198;2023-08-30T11:37:47;22.20;99.90
8595;DHT22;4335;48.860;9.198;2023-08-30T11:40:14;21.90;99.90
8595;DHT22;4335;48.860;9.198;2023-08-30T11:42:43;21.80;99.90
8595;DHT22;4335;48.860;9.198;2023-08-30T11:45:10;21.30;99.90
8595;DHT22;4335;48.860;9.198;2023-08-30T11:47:38;21.00;99.90
8595;DHT22;4335;48.860;9.198;2023-08-30T11:50:07;20.70;99.90
8595;DHT22;4335;48.860;9.198;2023-08-30T11:52:36;20.60;99.90
8595;DHT22;4335;48.860;9.198;2023-08-30T11:55:06;20.40;99.90
8595;DHT22;4335;48.860;9.198;2023-08-30T11:57:44;20.20;99.90
8595;DHT22;4335;48.860;9.198;2023-08-30T12:00:12;20.20;99.90
8595;DHT22;4335;48.860;9.198;2023-08-30T12:02:40;20.10;99.90
8595;DHT22;4335;48.860;9.198;2023-08-30T12:05:11;20.00;99.90
8595;DHT22;4335;48.860;9.198;2023-08-30T12:07:40;19.90;99.90
8595;DHT22;4335;48.860;9.198;2023-08-30T12:10:13;19.80;99.90
8595;DHT22;4335;48.860;9.198;2023-08-30T12:12:45;19.70;99.90
8595;DHT22;4335;48.860;9.198;2023-08-30T12:15:14;19.60;99.90
8595;DHT22;4335;48.860;9.198;2023-08-30T12:17:41;19.60;99.90
8595;DHT22;4335;48.860;9.198;2023-08-30T12:20:15;19.50;99.90
8595;DHT22;4335;48.860;9.198;2023-08-30T12:22:45;19.50;99.90
8595;DHT22;4335;48.860;9.198;2023-08-30T12:25:19;19.40;99.90
8595;DHT22;4335;48.860;9.198;2023-08-30T12:27:47;19.50;99.90
8595;DHT22;4335;48.860;9.198;2023-08-30T12:30:15;19.50;99.90
8595;DHT22;4335;48.860;9.198;2023-08-30T12:32:49;19.50;99.90
8595;DHT22;4335;48.860;9.198;2023-08-30T12:35:16;19.50;99.90
8595;DHT22;4335;48.860;9.198;2023-08-30T12:37:47;19.50;99.90
8595;DHT22;4335;48.860;9.198;2023-08-30T12:40:15;19.50;99.90
8595;DHT22;4335;48.860;9.198;2023-08-30T12:42:45;19.60;99.90
8595;DHT22;4335;48.860;9.198;2023-08-30T12:45:16;19.70;99.90
8595;DHT22;4335;48.860;9.198;2023-08-30T12:47:52;19.70;99.90
8595;DHT22;4335;48.860;9.198;2023-08-30T12:50:20;19.80;99.90
8595;DHT22;4335;48.860;9.198;2023-08-30T12:52:52;19.90;99.90
8595;DHT22;4335;48.860;9.198;2023-08-30T12:55:22;19.90;99.90
8595;DHT22;4335;48.860;9.198;2023-08-30T12:57:49;20.00;99.90
8595;DHT22;4335;48.860;9.198;2023-08-30T13:00:22;20.10;99.90
8595;DHT22;4335;48.860;9.198;2023-08-30T13:02:50;20.30;99.90
8595;DHT22;4335;48.860;9.198;2023-08-30T13:05:17;20.40;99.90
8595;DHT22;4335;48.860;9.198;2023-08-30T13:07:45;20.60;99.90
8595;DHT22;4335;48.860;9.198;2023-08-30T13:10:14;20.80;99.90
8595;DHT22;4335;48.860;9.198;2023-08-30T13:12:42;20.90;99.90
8595;DHT22;4335;48.860;9.198;2023-08-30T13:15:10;20.90;99.90
8595;DHT22;4335;48.860;9.198;2023-08-30T13:17:38;21.00;99.90
8595;DHT22;4335;48.860;9.198;2023-08-30T13:20:11;21.10;99.90
8595;DHT22;4335;48.860;9.198;2023-08-30T13:22:39;21.20;99.90
8595;DHT22;4335;48.860;9.198;2023-08-30T13:25:09;21.10;99.90
8595;DHT22;4335;48.860;9.198;2023-08-30T13:27:38;21.20;99.90
8595;DHT22;4335;48.860;9.198;2023-08-30T13:30:09;21.20;99.90
8595;DHT22;4335;48.860;9.198;2023-08-30T13:32:36;21.30;99.90
8595;DHT22;4335;48.860;9.198;2023-08-30T13:35:04;21.40;99.90
8595;DHT22;4335;48.860;9.198;2023-08-30T13:37:32;21.40;99.90
8595;DHT22;4335;48.860;9.198;2023-08-30T13:39:59;21.40;99.90
8595;DHT22;4335;48.860;9.198;2023-08-30T13:42:26;21.50;99.90
8595;DHT22;4335;48.860;9.198;2023-08-30T13:44:55;21.60;99.90
8595;DHT22;4335;48.860;9.198;2023-08-30T13:47:23;21.60;99.90
8595;DHT22;4335;48.860;9.198;2023-08-30T13:49:50;21.70;99.90
8595;DHT22;4335;48.860;9.198;2023-08-30T13:52:23;21.60;99.90
8595;DHT22;4335;48.860;9.198;2023-08-30T13:54:51;21.50;99.90
8595;DHT22;4335;48.860;9.198;2023-08-30T13:57:19;21.50;99.90
8595;DHT22;4335;48.860;9.198;2023-08-30T13:59:46;21.40;99.90
8595;DHT22;4335;48.860;9.198;2023-08-30T14:02:15;21.30;99.90
8595;DHT22;4335;48.860;9.198;2023-08-30T14:04:45;21.40;99.90
8595;DHT22;4335;48.860;9.198;2023-08-30T14:07:16;21.30;99.90
8595;DHT22;4335;48.860;9.198;2023-08-30T14:09:43;21.30;99.90
8595;DHT22;4335;48.860;9.198;2023-08-30T14:12:11;21.30;99.90
8595;DHT22;4335;48.860;9.198;2023-08-30T14:14:38;21.30;99.90
8595;DHT22;4335;48.860;9.198;2023-08-30T14:17:05;21.20;99.90
8595;DHT22;4335;48.860;9.198;2023-08-30T14:19:35;21.20;99.90
8595;DHT22;4335;48.860;9.198;2023-08-30T14:22:14;21.20;99.90
8595;DHT22;4335;48.860;9.198;2023-08-30T14:24:41;21.20;99.90
8595;DHT22;4335;48.860;9.198;2023-08-30T14:27:09;21.20;99.90
8595;DHT22;4335;48.860;9.198;2023-08-30T14:29:36;21.20;99.90
8595;DHT22;4335;48.860;9.198;2023-08-30T14:32:06;21.10;99.90
8595;DHT22;4335;48.860;9.198;2023-08-30T14:34:35;21.10;99.90
8595;DHT22;4335;48.860;9.198;2023-08-30T14:37:03;21.00;99.90
8595;DHT22;4335;48.860;9.198;2023-08-30T14:39:33;20.90;99.90
8595;DHT22;4335;48.860;9.198;2023-08-30T14:42:00;20.80;99.90
8595;DHT22;4335;48.860;9.198;2023-08-30T14:44:30;20.70;99.90
8595;DHT22;4335;48.860;9.198;2023-08-30T14:46:57;20.60;99.90
8595;DHT22;4335;48.860;9.198;2023-08-30T14:49:29;20.50;99.90
8595;DHT22;4335;48.860;9.198;2023-08-30T14:52:01;20.40;99.90
8595;DHT22;4335;48.860;9.198;2023-08-30T14:54:37;20.40;99.90
8595;DHT22;4335;48.860;9.198;2023-08-30T14:57:07;20.30;99.90
8595;DHT22;4335;48.860;9.198;2023-08-30T14:59:35;20.20;99.90
8595;DHT22;4335;48.860;9.198;2023-08-30T15:02:02;20.10;99.90
8595;DHT22;4335;48.860;9.198;2023-08-30T15:04:29;20.00;99.90
8595;DHT22;4335;48.860;9.198;2023-08-30T15:06:57;19.90;99.90
8595;DHT22;4335;48.860;9.198;2023-08-30T15:09:29;19.80;99.90
8595;DHT22;4335;48.860;9.198;2023-08-30T15:11:56;19.70;99.90
8595;DHT22;4335;48.860;9.198;2023-08-30T15:14:24;19.60;99.90
8595;DHT22;4335;48.860;9.198;2023-08-30T15:16:51;19.60;99.90
8595;DHT22;4335;48.860;9.198;2023-08-30T15:19:19;19.70;99.90
8595;DHT22;4335;48.860;9.198;2023-08-30T15:21:49;19.80;99.90
8595;DHT22;4335;48.860;9.198;2023-08-30T15:24:16;19.90;99.90
8595;DHT22;4335;48.860;9.198;2023-08-30T15:26:46;19.90;99.90
8595;DHT22;4335;48.860;9.198;2023-08-30T15:29:13;20.00;99.90
8595;DHT22;4335;48.860;9.198;2023-08-30T15:31:50;20.10;99.90
8595;DHT22;4335;48.860;9.198;2023-08-30T15:34:21;20.20;99.90
8595;DHT22;4335;48.860;9.198;2023-08-30T15:36:49;20.30;99.90
8595;DHT22;4335;48.860;9.198;2023-08-30T15:39:16;20.30;99.90
8595;DHT22;4335;48.860;9.198;2023-08-30T15:41:44;20.40;99.90
8595;DHT22;4335;48.860;9.198;2023-08-30T15:44:14;20.30;99.90
8595;DHT22;4335;48.860;9.198;2023-08-30T15:46:46;20.40;99.90
8595;DHT22;4335;48.860;9.198;2023-08-30T15:49:13;20.40;99.90
8595;DHT22;4335;48.860;9.198;2023-08-30T15:51:44;20.30;99.90
8595;DHT22;4335;48.860;9.198;2023-08-30T15:54:14;20.30;99.90
8595;DHT22;4335;48.860;9.198;2023-08-30T15:56:42;20.30;99.90
8595;DHT22;4335;48.860;9.198;2023-08-30T15:59:17;20.30;99.90
8595;DHT22;4335;48.860;9.198;2023-08-30T16:01:48;20.20;99.90
8595;DHT22;4335;48.860;9.198;2023-08-30T16:04:18;20.30;99.90
8595;DHT22;4335;48.860;9.198;2023-08-30T16:06:47;20.30;99.90
8595;DHT22;4335;48.860;9.198;2023-08-30T16:09:15;20.30;99.90
8595;DHT22;4335;48.860;9.198;2023-08-30T16:11:49;20.30;99.90
8595;DHT22;4335;48.860;9.198;2023-08-30T16:14:18;20.20;99.90
8595;DHT22;4335;48.860;9.198;2023-08-30T16:16:48;20.10;99.90
8595;DHT22;4335;48.860;9.198;2023-08-30T16:19:18;19.90;99.90
8595;DHT22;4335;48.860;9.198;2023-08-30T16:21:48;19.90;99.90